Ana Sayfa
METAR-TAF:

METAR-TAF

Havaalanları :

Marfa, Teksas, Amerika Birleşik Devletleri

Enlem: 30-22N, Boylam: 104-01W, yükseklik: 1478 m

Güncel hava durumu gözlemi

Rapor saat 23:56 UTC de 1 saat ve 8 dakika önce yapıldı.
Rüzgar batıdan 5 kt
Sıcaklık 32°C
Nem 15%
Basınç 1017 hPa
Görüş mesafesi: 16.1 km
Açık gökyüzü

METAR: KMRF 192356Z AUTO 28005KT 10SM CLR 32/02 A3002 RMK AO2 SLP101 T03170022 10328 20300 56013

Saat: 20:04 (01:04 UTC)


TAF: eksik

4.000'den fazla havaalanı için hava durumu gözlemleri ve tahminleri (METAR ve TAF raporları).

Kullanılabilir istasyonlar harita üzerinde sarı ve kırmızı noktalarla gösterilir.

İstasyonun adını görmek için fareyi noktanın üzerinde gezdirin.

Sonrasında hava gözlem ve tahminlerini görmek için tıklayın.

Haritayı değiştirmek için: yaklaştırmak için siyah artı işaretli yeşil düğmeye ve uzaklaştırmak için de eksi işaretli düğmeye hızla tıklayın; bitişik haritalar için yeşil okları kullanın.


METAR-TAF: